Terminal Aerodrome Forecast
Issued by NWS Jackson, KY

Home | Current Version | Previous Version | Text Only | Print | Product List | Glossary On
Versions: 1 2 3 4 5 6 7 8 9 10 11 12 13 14 15 16 17
000
FTUS43 KJKL 291120
TAFJKL
TAF
KJKL 291120Z 2912/3012 VRB03KT P6SM SKC
     FM291400 18006KT P6SM SCT250
     FM300200 20008G15KT P6SM VCSH BKN040 OVC060
     FM300400 22008KT 5SM -SHRA SCT025 OVC035
     FM300600 25006KT 4SM -SHRA BR OVC015=

USA.gov is the U.S. government's official web portal to all federal, state and local government web resources and services.